sensor_id;sensor_type;location;lat;lon;timestamp;temperature;humidity
35668;DHT22;22158;59.280;17.806;2023-07-31T00:02:12;14.80;99.90
35668;DHT22;22158;59.280;17.806;2023-07-31T00:04:37;14.80;99.90
35668;DHT22;22158;59.280;17.806;2023-07-31T00:07:03;14.80;99.90
35668;DHT22;22158;59.280;17.806;2023-07-31T00:09:29;14.70;99.90
35668;DHT22;22158;59.280;17.806;2023-07-31T00:11:55;14.70;99.90
35668;DHT22;22158;59.280;17.806;2023-07-31T00:14:20;14.70;99.90
35668;DHT22;22158;59.280;17.806;2023-07-31T00:16:46;14.70;99.90
35668;DHT22;22158;59.280;17.806;2023-07-31T00:19:11;14.60;99.90
35668;DHT22;22158;59.280;17.806;2023-07-31T00:21:37;14.60;99.90
35668;DHT22;22158;59.280;17.806;2023-07-31T00:24:02;14.60;99.90
35668;DHT22;22158;59.280;17.806;2023-07-31T00:26:28;14.50;99.90
35668;DHT22;22158;59.280;17.806;2023-07-31T00:28:53;14.50;99.90
35668;DHT22;22158;59.280;17.806;2023-07-31T00:31:19;14.50;99.90
35668;DHT22;22158;59.280;17.806;2023-07-31T00:33:45;14.50;99.90
35668;DHT22;22158;59.280;17.806;2023-07-31T00:36:10;14.50;99.90
35668;DHT22;22158;59.280;17.806;2023-07-31T00:38:36;14.40;99.90
35668;DHT22;22158;59.280;17.806;2023-07-31T00:41:01;14.40;99.90
35668;DHT22;22158;59.280;17.806;2023-07-31T00:43:27;14.40;99.90
35668;DHT22;22158;59.280;17.806;2023-07-31T00:45:52;14.40;99.90
35668;DHT22;22158;59.280;17.806;2023-07-31T00:48:18;14.40;99.90
35668;DHT22;22158;59.280;17.806;2023-07-31T00:50:44;14.40;99.90
35668;DHT22;22158;59.280;17.806;2023-07-31T00:53:09;14.30;99.90
35668;DHT22;22158;59.280;17.806;2023-07-31T00:55:35;14.30;99.90
35668;DHT22;22158;59.280;17.806;2023-07-31T00:58:01;14.30;99.90
35668;DHT22;22158;59.280;17.806;2023-07-31T01:00:26;14.30;99.90
35668;DHT22;22158;59.280;17.806;2023-07-31T01:02:52;14.30;99.90
35668;DHT22;22158;59.280;17.806;2023-07-31T01:05:25;14.30;99.90
35668;DHT22;22158;59.280;17.806;2023-07-31T01:08:08;14.30;99.90
35668;DHT22;22158;59.280;17.806;2023-07-31T01:10:48;14.30;99.90
35668;DHT22;22158;59.280;17.806;2023-07-31T01:13:15;14.30;99.90
35668;DHT22;22158;59.280;17.806;2023-07-31T01:15:41;14.30;99.90
35668;DHT22;22158;59.280;17.806;2023-07-31T01:18:06;14.30;99.90
35668;DHT22;22158;59.280;17.806;2023-07-31T01:20:32;14.20;99.90
35668;DHT22;22158;59.280;17.806;2023-07-31T01:23:21;14.20;99.90
35668;DHT22;22158;59.280;17.806;2023-07-31T01:26:11;14.20;99.90
35668;DHT22;22158;59.280;17.806;2023-07-31T01:31:20;14.20;99.90
35668;DHT22;22158;59.280;17.806;2023-07-31T01:33:48;14.30;99.90
35668;DHT22;22158;59.280;17.806;2023-07-31T01:36:14;14.30;99.90
35668;DHT22;22158;59.280;17.806;2023-07-31T01:38:40;14.20;99.90
35668;DHT22;22158;59.280;17.806;2023-07-31T01:41:06;14.20;99.90
35668;DHT22;22158;59.280;17.806;2023-07-31T01:43:31;14.20;99.90
35668;DHT22;22158;59.280;17.806;2023-07-31T01:45:57;14.20;99.90
35668;DHT22;22158;59.280;17.806;2023-07-31T01:48:22;14.20;99.90
35668;DHT22;22158;59.280;17.806;2023-07-31T01:50:48;14.20;99.90
35668;DHT22;22158;59.280;17.806;2023-07-31T01:53:13;14.20;99.90
35668;DHT22;22158;59.280;17.806;2023-07-31T01:55:39;14.20;99.90
35668;DHT22;22158;59.280;17.806;2023-07-31T01:58:05;14.20;99.90
35668;DHT22;22158;59.280;17.806;2023-07-31T02:00:31;14.20;99.90
35668;DHT22;22158;59.280;17.806;2023-07-31T02:02:56;14.30;99.90
35668;DHT22;22158;59.280;17.806;2023-07-31T02:05:22;14.30;99.90
35668;DHT22;22158;59.280;17.806;2023-07-31T02:07:47;14.30;99.90
35668;DHT22;22158;59.280;17.806;2023-07-31T02:10:13;14.30;99.90
35668;DHT22;22158;59.280;17.806;2023-07-31T02:12:39;14.30;99.90
35668;DHT22;22158;59.280;17.806;2023-07-31T02:15:05;14.40;99.90
35668;DHT22;22158;59.280;17.806;2023-07-31T02:17:30;14.40;99.90
35668;DHT22;22158;59.280;17.806;2023-07-31T02:19:56;14.40;99.90
35668;DHT22;22158;59.280;17.806;2023-07-31T02:22:21;14.40;99.90
35668;DHT22;22158;59.280;17.806;2023-07-31T02:24:47;14.40;99.90
35668;DHT22;22158;59.280;17.806;2023-07-31T02:27:12;14.40;99.90
35668;DHT22;22158;59.280;17.806;2023-07-31T02:29:38;14.40;99.90
35668;DHT22;22158;59.280;17.806;2023-07-31T02:32:04;14.40;99.90
35668;DHT22;22158;59.280;17.806;2023-07-31T02:34:30;14.40;99.90
35668;DHT22;22158;59.280;17.806;2023-07-31T02:36:55;14.50;99.90
35668;DHT22;22158;59.280;17.806;2023-07-31T02:39:21;14.50;99.90
35668;DHT22;22158;59.280;17.806;2023-07-31T02:41:47;14.50;99.90
35668;DHT22;22158;59.280;17.806;2023-07-31T02:44:12;14.50;99.90
35668;DHT22;22158;59.280;17.806;2023-07-31T02:46:39;14.50;99.90
35668;DHT22;22158;59.280;17.806;2023-07-31T02:49:05;14.50;99.90
35668;DHT22;22158;59.280;17.806;2023-07-31T02:51:31;14.50;99.90
35668;DHT22;22158;59.280;17.806;2023-07-31T02:53:56;14.50;99.90
35668;DHT22;22158;59.280;17.806;2023-07-31T02:56:22;14.50;99.90
35668;DHT22;22158;59.280;17.806;2023-07-31T02:58:47;14.50;99.90
35668;DHT22;22158;59.280;17.806;2023-07-31T03:01:13;14.60;99.90
35668;DHT22;22158;59.280;17.806;2023-07-31T03:03:39;14.60;99.90
35668;DHT22;22158;59.280;17.806;2023-07-31T03:06:04;14.60;99.90
35668;DHT22;22158;59.280;17.806;2023-07-31T03:08:30;14.60;99.90
35668;DHT22;22158;59.280;17.806;2023-07-31T03:10:56;14.60;99.90
35668;DHT22;22158;59.280;17.806;2023-07-31T03:13:22;14.60;99.90
35668;DHT22;22158;59.280;17.806;2023-07-31T03:15:47;14.60;99.90
35668;DHT22;22158;59.280;17.806;2023-07-31T03:18:13;14.70;99.90
35668;DHT22;22158;59.280;17.806;2023-07-31T03:20:42;14.70;99.90
35668;DHT22;22158;59.280;17.806;2023-07-31T03:23:09;14.70;99.90
35668;DHT22;22158;59.280;17.806;2023-07-31T03:25:34;14.70;99.90
35668;DHT22;22158;59.280;17.806;2023-07-31T03:28:00;14.80;99.90
35668;DHT22;22158;59.280;17.806;2023-07-31T03:30:26;14.80;99.90
35668;DHT22;22158;59.280;17.806;2023-07-31T03:32:51;14.80;99.90
35668;DHT22;22158;59.280;17.806;2023-07-31T03:35:17;14.80;99.90
35668;DHT22;22158;59.280;17.806;2023-07-31T03:37:43;14.80;99.90
35668;DHT22;22158;59.280;17.806;2023-07-31T03:40:09;14.80;99.90
35668;DHT22;22158;59.280;17.806;2023-07-31T03:42:34;14.80;99.90
35668;DHT22;22158;59.280;17.806;2023-07-31T03:45:00;14.90;99.90
35668;DHT22;22158;59.280;17.806;2023-07-31T03:47:26;14.90;99.90
35668;DHT22;22158;59.280;17.806;2023-07-31T03:49:51;14.90;99.90
35668;DHT22;22158;59.280;17.806;2023-07-31T03:52:17;14.90;99.90
35668;DHT22;22158;59.280;17.806;2023-07-31T03:54:43;14.90;99.90
35668;DHT22;22158;59.280;17.806;2023-07-31T03:57:10;14.90;99.90
35668;DHT22;22158;59.280;17.806;2023-07-31T03:59:36;14.90;99.90
35668;DHT22;22158;59.280;17.806;2023-07-31T04:02:04;15.00;99.90
35668;DHT22;22158;59.280;17.806;2023-07-31T04:04:30;15.00;99.90
35668;DHT22;22158;59.280;17.806;2023-07-31T04:06:55;15.00;99.90
35668;DHT22;22158;59.280;17.806;2023-07-31T04:09:21;15.00;99.90
35668;DHT22;22158;59.280;17.806;2023-07-31T04:11:46;15.00;99.90
35668;DHT22;22158;59.280;17.806;2023-07-31T04:14:12;15.10;99.90
35668;DHT22;22158;59.280;17.806;2023-07-31T04:16:37;15.10;99.90
35668;DHT22;22158;59.280;17.806;2023-07-31T04:19:04;15.10;99.90
35668;DHT22;22158;59.280;17.806;2023-07-31T04:21:29;15.20;99.90
35668;DHT22;22158;59.280;17.806;2023-07-31T04:23:55;15.20;99.90
35668;DHT22;22158;59.280;17.806;2023-07-31T04:26:21;15.30;99.90
35668;DHT22;22158;59.280;17.806;2023-07-31T04:28:47;15.40;99.90
35668;DHT22;22158;59.280;17.806;2023-07-31T04:31:12;15.40;99.90
35668;DHT22;22158;59.280;17.806;2023-07-31T04:33:38;15.50;99.90
35668;DHT22;22158;59.280;17.806;2023-07-31T04:36:04;15.60;99.90
35668;DHT22;22158;59.280;17.806;2023-07-31T04:38:30;15.60;99.90
35668;DHT22;22158;59.280;17.806;2023-07-31T04:40:56;15.70;99.90
35668;DHT22;22158;59.280;17.806;2023-07-31T04:43:21;15.80;99.90
35668;DHT22;22158;59.280;17.806;2023-07-31T04:45:47;15.90;99.90
35668;DHT22;22158;59.280;17.806;2023-07-31T04:48:13;16.00;99.90
35668;DHT22;22158;59.280;17.806;2023-07-31T04:50:39;16.10;99.90
35668;DHT22;22158;59.280;17.806;2023-07-31T04:53:05;16.10;99.90
35668;DHT22;22158;59.280;17.806;2023-07-31T04:55:30;16.20;99.90
35668;DHT22;22158;59.280;17.806;2023-07-31T04:57:58;16.20;99.90
35668;DHT22;22158;59.280;17.806;2023-07-31T05:00:23;16.30;99.90
35668;DHT22;22158;59.280;17.806;2023-07-31T05:02:49;16.30;99.90
35668;DHT22;22158;59.280;17.806;2023-07-31T05:05:15;16.40;99.90
35668;DHT22;22158;59.280;17.806;2023-07-31T05:07:40;16.50;99.90
35668;DHT22;22158;59.280;17.806;2023-07-31T05:10:06;16.60;99.90
35668;DHT22;22158;59.280;17.806;2023-07-31T05:12:32;16.60;99.90
35668;DHT22;22158;59.280;17.806;2023-07-31T05:14:57;16.60;99.90
35668;DHT22;22158;59.280;17.806;2023-07-31T05:17:23;16.70;99.90
35668;DHT22;22158;59.280;17.806;2023-07-31T05:19:48;16.70;99.90
35668;DHT22;22158;59.280;17.806;2023-07-31T05:22:14;16.70;99.90
35668;DHT22;22158;59.280;17.806;2023-07-31T05:24:39;16.70;99.90
35668;DHT22;22158;59.280;17.806;2023-07-31T05:27:05;16.80;99.90
35668;DHT22;22158;59.280;17.806;2023-07-31T05:29:31;16.90;99.90
35668;DHT22;22158;59.280;17.806;2023-07-31T05:31:56;16.90;99.90
35668;DHT22;22158;59.280;17.806;2023-07-31T05:34:22;16.90;99.90
35668;DHT22;22158;59.280;17.806;2023-07-31T05:36:47;17.00;99.90
35668;DHT22;22158;59.280;17.806;2023-07-31T05:39:13;17.00;99.90
35668;DHT22;22158;59.280;17.806;2023-07-31T05:41:39;17.10;99.90
35668;DHT22;22158;59.280;17.806;2023-07-31T05:44:04;17.20;99.90
35668;DHT22;22158;59.280;17.806;2023-07-31T05:46:30;17.20;99.90
35668;DHT22;22158;59.280;17.806;2023-07-31T05:48:56;17.20;99.90
35668;DHT22;22158;59.280;17.806;2023-07-31T05:51:22;17.10;99.90
35668;DHT22;22158;59.280;17.806;2023-07-31T05:53:47;17.00;99.90
35668;DHT22;22158;59.280;17.806;2023-07-31T05:56:13;17.10;99.90
35668;DHT22;22158;59.280;17.806;2023-07-31T05:58:38;17.00;99.90
35668;DHT22;22158;59.280;17.806;2023-07-31T06:01:04;16.90;99.90
35668;DHT22;22158;59.280;17.806;2023-07-31T06:03:29;17.00;99.90
35668;DHT22;22158;59.280;17.806;2023-07-31T06:05:56;16.90;99.90
35668;DHT22;22158;59.280;17.806;2023-07-31T06:08:21;17.00;99.90
35668;DHT22;22158;59.280;17.806;2023-07-31T06:10:47;16.90;99.90
35668;DHT22;22158;59.280;17.806;2023-07-31T06:13:12;16.90;99.90
35668;DHT22;22158;59.280;17.806;2023-07-31T06:15:38;16.90;99.90
35668;DHT22;22158;59.280;17.806;2023-07-31T06:18:03;16.90;99.90
35668;DHT22;22158;59.280;17.806;2023-07-31T06:20:32;16.90;99.90
35668;DHT22;22158;59.280;17.806;2023-07-31T06:22:58;16.80;99.90
35668;DHT22;22158;59.280;17.806;2023-07-31T06:25:23;16.80;99.90
35668;DHT22;22158;59.280;17.806;2023-07-31T06:27:49;16.70;99.90
35668;DHT22;22158;59.280;17.806;2023-07-31T06:30:15;16.80;99.90
35668;DHT22;22158;59.280;17.806;2023-07-31T06:32:40;16.80;99.90
35668;DHT22;22158;59.280;17.806;2023-07-31T06:35:06;16.80;99.90
35668;DHT22;22158;59.280;17.806;2023-07-31T06:37:32;16.90;99.90
35668;DHT22;22158;59.280;17.806;2023-07-31T06:39:57;16.90;99.90
35668;DHT22;22158;59.280;17.806;2023-07-31T06:42:23;17.00;99.90
35668;DHT22;22158;59.280;17.806;2023-07-31T06:44:49;17.00;99.90
35668;DHT22;22158;59.280;17.806;2023-07-31T06:47:14;17.00;99.90
35668;DHT22;22158;59.280;17.806;2023-07-31T06:49:40;17.00;99.90
35668;DHT22;22158;59.280;17.806;2023-07-31T06:52:06;17.00;99.90
35668;DHT22;22158;59.280;17.806;2023-07-31T06:54:31;17.00;99.90
35668;DHT22;22158;59.280;17.806;2023-07-31T06:56:57;16.90;99.90
35668;DHT22;22158;59.280;17.806;2023-07-31T06:59:23;16.80;99.90
35668;DHT22;22158;59.280;17.806;2023-07-31T07:01:48;16.80;99.90
35668;DHT22;22158;59.280;17.806;2023-07-31T07:04:14;16.80;99.90
35668;DHT22;22158;59.280;17.806;2023-07-31T07:06:40;16.70;99.90
35668;DHT22;22158;59.280;17.806;2023-07-31T07:09:05;16.60;99.90
35668;DHT22;22158;59.280;17.806;2023-07-31T07:11:31;16.60;99.90
35668;DHT22;22158;59.280;17.806;2023-07-31T07:13:57;16.50;99.90
35668;DHT22;22158;59.280;17.806;2023-07-31T07:16:22;16.40;99.90
35668;DHT22;22158;59.280;17.806;2023-07-31T07:18:48;16.30;99.90
35668;DHT22;22158;59.280;17.806;2023-07-31T07:21:13;16.20;99.90
35668;DHT22;22158;59.280;17.806;2023-07-31T07:23:42;16.10;99.90
35668;DHT22;22158;59.280;17.806;2023-07-31T07:26:07;16.10;99.90
35668;DHT22;22158;59.280;17.806;2023-07-31T07:28:33;16.00;99.90
35668;DHT22;22158;59.280;17.806;2023-07-31T07:30:58;15.90;99.90
35668;DHT22;22158;59.280;17.806;2023-07-31T07:33:24;15.90;99.90
35668;DHT22;22158;59.280;17.806;2023-07-31T07:35:49;15.90;99.90
35668;DHT22;22158;59.280;17.806;2023-07-31T07:38:15;15.80;99.90
35668;DHT22;22158;59.280;17.806;2023-07-31T07:40:41;15.80;99.90
35668;DHT22;22158;59.280;17.806;2023-07-31T07:43:07;15.70;99.90
35668;DHT22;22158;59.280;17.806;2023-07-31T07:45:32;15.70;99.90
35668;DHT22;22158;59.280;17.806;2023-07-31T07:47:58;15.60;99.90
35668;DHT22;22158;59.280;17.806;2023-07-31T07:50:24;15.60;99.90
35668;DHT22;22158;59.280;17.806;2023-07-31T07:52:50;15.50;99.90
35668;DHT22;22158;59.280;17.806;2023-07-31T07:55:15;15.40;99.90
35668;DHT22;22158;59.280;17.806;2023-07-31T07:57:41;15.40;99.90
35668;DHT22;22158;59.280;17.806;2023-07-31T08:00:07;15.40;99.90
35668;DHT22;22158;59.280;17.806;2023-07-31T08:02:33;15.40;99.90
35668;DHT22;22158;59.280;17.806;2023-07-31T08:04:58;15.40;99.90
35668;DHT22;22158;59.280;17.806;2023-07-31T08:07:24;15.30;99.90
35668;DHT22;22158;59.280;17.806;2023-07-31T08:09:49;15.30;99.90
35668;DHT22;22158;59.280;17.806;2023-07-31T08:12:15;15.30;99.90
35668;DHT22;22158;59.280;17.806;2023-07-31T08:14:41;15.30;99.90
35668;DHT22;22158;59.280;17.806;2023-07-31T08:17:06;15.20;99.90
35668;DHT22;22158;59.280;17.806;2023-07-31T08:19:32;15.20;99.90
35668;DHT22;22158;59.280;17.806;2023-07-31T08:21:57;15.10;99.90
35668;DHT22;22158;59.280;17.806;2023-07-31T08:24:23;15.10;99.90
35668;DHT22;22158;59.280;17.806;2023-07-31T08:26:48;15.10;99.90
35668;DHT22;22158;59.280;17.806;2023-07-31T08:29:14;15.00;99.90
35668;DHT22;22158;59.280;17.806;2023-07-31T08:31:40;15.00;99.90
35668;DHT22;22158;59.280;17.806;2023-07-31T08:34:05;14.90;99.90
35668;DHT22;22158;59.280;17.806;2023-07-31T08:36:31;14.90;99.90
35668;DHT22;22158;59.280;17.806;2023-07-31T08:38:56;14.90;99.90
35668;DHT22;22158;59.280;17.806;2023-07-31T08:41:22;15.00;99.90
35668;DHT22;22158;59.280;17.806;2023-07-31T08:43:49;15.00;99.90
35668;DHT22;22158;59.280;17.806;2023-07-31T08:46:15;15.00;99.90
35668;DHT22;22158;59.280;17.806;2023-07-31T08:48:42;15.10;99.90
35668;DHT22;22158;59.280;17.806;2023-07-31T08:51:08;15.10;99.90
35668;DHT22;22158;59.280;17.806;2023-07-31T08:53:34;15.20;99.90
35668;DHT22;22158;59.280;17.806;2023-07-31T08:56:00;15.30;99.90
35668;DHT22;22158;59.280;17.806;2023-07-31T08:58:27;15.40;99.90
35668;DHT22;22158;59.280;17.806;2023-07-31T09:00:54;15.60;99.90
35668;DHT22;22158;59.280;17.806;2023-07-31T09:03:21;15.80;99.90
35668;DHT22;22158;59.280;17.806;2023-07-31T09:05:48;16.00;99.90
35668;DHT22;22158;59.280;17.806;2023-07-31T09:08:18;16.20;99.90
35668;DHT22;22158;59.280;17.806;2023-07-31T09:10:45;16.40;99.90
35668;DHT22;22158;59.280;17.806;2023-07-31T09:13:15;16.50;99.90
35668;DHT22;22158;59.280;17.806;2023-07-31T09:15:43;16.70;99.90
35668;DHT22;22158;59.280;17.806;2023-07-31T09:18:09;16.70;99.90
35668;DHT22;22158;59.280;17.806;2023-07-31T09:20:35;16.80;99.90
35668;DHT22;22158;59.280;17.806;2023-07-31T09:23:14;17.00;99.90
35668;DHT22;22158;59.280;17.806;2023-07-31T09:25:43;17.10;99.90
35668;DHT22;22158;59.280;17.806;2023-07-31T09:28:10;17.20;99.90
35668;DHT22;22158;59.280;17.806;2023-07-31T09:30:54;17.40;99.90
35668;DHT22;22158;59.280;17.806;2023-07-31T09:33:20;17.50;99.90
35668;DHT22;22158;59.280;17.806;2023-07-31T09:35:46;17.60;99.90
35668;DHT22;22158;59.280;17.806;2023-07-31T09:38:14;17.70;99.90
35668;DHT22;22158;59.280;17.806;2023-07-31T09:40:47;17.70;99.90
35668;DHT22;22158;59.280;17.806;2023-07-31T09:43:17;17.70;99.90
35668;DHT22;22158;59.280;17.806;2023-07-31T09:45:44;17.70;99.90
35668;DHT22;22158;59.280;17.806;2023-07-31T09:50:42;17.80;99.90
35668;DHT22;22158;59.280;17.806;2023-07-31T09:53:08;17.80;99.90
35668;DHT22;22158;59.280;17.806;2023-07-31T09:55:37;18.00;99.90
35668;DHT22;22158;59.280;17.806;2023-07-31T09:58:08;18.00;99.90
35668;DHT22;22158;59.280;17.806;2023-07-31T10:00:34;18.10;99.90
35668;DHT22;22158;59.280;17.806;2023-07-31T10:03:04;18.10;99.90
35668;DHT22;22158;59.280;17.806;2023-07-31T10:08:03;18.20;99.90
35668;DHT22;22158;59.280;17.806;2023-07-31T10:10:29;18.30;99.90
35668;DHT22;22158;59.280;17.806;2023-07-31T10:12:56;18.40;99.90
35668;DHT22;22158;59.280;17.806;2023-07-31T10:15:23;18.50;99.90
35668;DHT22;22158;59.280;17.806;2023-07-31T10:17:50;18.50;99.90
35668;DHT22;22158;59.280;17.806;2023-07-31T10:20:16;18.70;99.90
35668;DHT22;22158;59.280;17.806;2023-07-31T10:22:43;18.80;99.90
35668;DHT22;22158;59.280;17.806;2023-07-31T10:25:09;18.60;99.90
35668;DHT22;22158;59.280;17.806;2023-07-31T10:27:44;18.80;99.90
35668;DHT22;22158;59.280;17.806;2023-07-31T10:30:16;18.90;99.90
35668;DHT22;22158;59.280;17.806;2023-07-31T10:32:43;18.90;99.90
35668;DHT22;22158;59.280;17.806;2023-07-31T10:35:10;19.00;99.90
35668;DHT22;22158;59.280;17.806;2023-07-31T10:37:40;19.10;99.90
35668;DHT22;22158;59.280;17.806;2023-07-31T10:40:23;19.00;99.90
35668;DHT22;22158;59.280;17.806;2023-07-31T10:42:50;19.00;99.90
35668;DHT22;22158;59.280;17.806;2023-07-31T10:50:30;18.90;99.90
35668;DHT22;22158;59.280;17.806;2023-07-31T10:52:58;18.80;99.90
35668;DHT22;22158;59.280;17.806;2023-07-31T10:57:57;18.70;99.90
35668;DHT22;22158;59.280;17.806;2023-07-31T11:00:28;18.60;99.90
35668;DHT22;22158;59.280;17.806;2023-07-31T11:03:16;18.60;99.90
35668;DHT22;22158;59.280;17.806;2023-07-31T11:05:46;18.50;99.90
35668;DHT22;22158;59.280;17.806;2023-07-31T11:08:16;18.50;99.90
35668;DHT22;22158;59.280;17.806;2023-07-31T11:10:43;18.50;99.90
35668;DHT22;22158;59.280;17.806;2023-07-31T11:13:09;18.50;99.90
35668;DHT22;22158;59.280;17.806;2023-07-31T11:15:34;18.40;99.90
35668;DHT22;22158;59.280;17.806;2023-07-31T11:18:01;18.40;99.90
35668;DHT22;22158;59.280;17.806;2023-07-31T11:20:30;18.50;99.90
35668;DHT22;22158;59.280;17.806;2023-07-31T11:22:59;18.50;99.90
35668;DHT22;22158;59.280;17.806;2023-07-31T11:25:25;18.40;99.90
35668;DHT22;22158;59.280;17.806;2023-07-31T11:27:50;18.40;99.90
35668;DHT22;22158;59.280;17.806;2023-07-31T11:30:19;18.40;99.90
35668;DHT22;22158;59.280;17.806;2023-07-31T11:32:45;18.40;99.90
35668;DHT22;22158;59.280;17.806;2023-07-31T11:35:14;18.30;99.90
35668;DHT22;22158;59.280;17.806;2023-07-31T11:37:43;18.30;99.90
35668;DHT22;22158;59.280;17.806;2023-07-31T11:40:10;18.30;99.90
35668;DHT22;22158;59.280;17.806;2023-07-31T11:42:36;18.30;99.90
35668;DHT22;22158;59.280;17.806;2023-07-31T11:45:03;18.40;99.90
35668;DHT22;22158;59.280;17.806;2023-07-31T11:47:30;18.30;99.90
35668;DHT22;22158;59.280;17.806;2023-07-31T11:49:57;18.30;99.90
35668;DHT22;22158;59.280;17.806;2023-07-31T11:52:23;18.30;99.90
35668;DHT22;22158;59.280;17.806;2023-07-31T11:54:50;18.30;99.90
35668;DHT22;22158;59.280;17.806;2023-07-31T11:57:16;18.30;99.90
35668;DHT22;22158;59.280;17.806;2023-07-31T11:59:42;18.20;99.90
35668;DHT22;22158;59.280;17.806;2023-07-31T12:02:08;18.10;99.90
35668;DHT22;22158;59.280;17.806;2023-07-31T12:04:34;18.10;99.90
35668;DHT22;22158;59.280;17.806;2023-07-31T12:07:02;18.00;99.90
35668;DHT22;22158;59.280;17.806;2023-07-31T12:09:28;17.90;99.90
35668;DHT22;22158;59.280;17.806;2023-07-31T12:11:53;17.90;99.90
35668;DHT22;22158;59.280;17.806;2023-07-31T12:14:24;17.90;99.90
35668;DHT22;22158;59.280;17.806;2023-07-31T12:17:04;17.80;99.90
35668;DHT22;22158;59.280;17.806;2023-07-31T12:19:30;17.70;99.90
35668;DHT22;22158;59.280;17.806;2023-07-31T12:21:59;17.70;99.90
35668;DHT22;22158;59.280;17.806;2023-07-31T12:24:26;17.70;99.90
35668;DHT22;22158;59.280;17.806;2023-07-31T12:26:52;17.70;99.90
35668;DHT22;22158;59.280;17.806;2023-07-31T12:29:18;17.70;99.90
35668;DHT22;22158;59.280;17.806;2023-07-31T12:31:43;17.60;99.90
35668;DHT22;22158;59.280;17.806;2023-07-31T12:34:17;17.60;99.90
35668;DHT22;22158;59.280;17.806;2023-07-31T12:36:43;17.60;99.90
35668;DHT22;22158;59.280;17.806;2023-07-31T12:39:09;17.50;99.90
35668;DHT22;22158;59.280;17.806;2023-07-31T12:41:35;17.50;99.90
35668;DHT22;22158;59.280;17.806;2023-07-31T12:44:01;17.60;99.90
35668;DHT22;22158;59.280;17.806;2023-07-31T12:46:26;17.50;99.90
35668;DHT22;22158;59.280;17.806;2023-07-31T12:48:52;17.50;99.90
35668;DHT22;22158;59.280;17.806;2023-07-31T12:51:17;17.50;99.90
35668;DHT22;22158;59.280;17.806;2023-07-31T12:53:43;17.40;99.90
35668;DHT22;22158;59.280;17.806;2023-07-31T12:56:08;17.40;99.90
35668;DHT22;22158;59.280;17.806;2023-07-31T12:58:34;17.40;99.90
35668;DHT22;22158;59.280;17.806;2023-07-31T13:00:59;17.30;99.90
35668;DHT22;22158;59.280;17.806;2023-07-31T13:03:26;17.30;99.90
35668;DHT22;22158;59.280;17.806;2023-07-31T13:05:52;17.20;99.90
35668;DHT22;22158;59.280;17.806;2023-07-31T13:08:17;17.20;99.90
35668;DHT22;22158;59.280;17.806;2023-07-31T13:10:43;17.10;99.90
35668;DHT22;22158;59.280;17.806;2023-07-31T13:13:10;17.20;99.90
35668;DHT22;22158;59.280;17.806;2023-07-31T13:15:35;17.10;99.90
35668;DHT22;22158;59.280;17.806;2023-07-31T13:18:01;17.20;99.90
35668;DHT22;22158;59.280;17.806;2023-07-31T13:20:27;17.00;99.90
35668;DHT22;22158;59.280;17.806;2023-07-31T13:22:52;17.00;99.90
35668;DHT22;22158;59.280;17.806;2023-07-31T13:25:18;16.90;99.90
35668;DHT22;22158;59.280;17.806;2023-07-31T13:27:44;16.80;99.90
35668;DHT22;22158;59.280;17.806;2023-07-31T13:30:09;16.80;99.90
35668;DHT22;22158;59.280;17.806;2023-07-31T13:32:35;16.80;99.90
35668;DHT22;22158;59.280;17.806;2023-07-31T13:35:07;16.80;99.90
35668;DHT22;22158;59.280;17.806;2023-07-31T13:37:33;16.80;99.90
35668;DHT22;22158;59.280;17.806;2023-07-31T13:39:59;16.80;99.90
35668;DHT22;22158;59.280;17.806;2023-07-31T13:42:25;16.90;99.90
35668;DHT22;22158;59.280;17.806;2023-07-31T13:44:51;16.80;99.90
35668;DHT22;22158;59.280;17.806;2023-07-31T13:47:17;16.80;99.90
35668;DHT22;22158;59.280;17.806;2023-07-31T13:49:43;16.80;99.90
35668;DHT22;22158;59.280;17.806;2023-07-31T13:52:08;16.90;99.90
35668;DHT22;22158;59.280;17.806;2023-07-31T13:54:34;16.90;99.90
35668;DHT22;22158;59.280;17.806;2023-07-31T13:57:00;16.80;99.90
35668;DHT22;22158;59.280;17.806;2023-07-31T13:59:26;16.80;99.90
35668;DHT22;22158;59.280;17.806;2023-07-31T14:01:51;16.70;99.90
35668;DHT22;22158;59.280;17.806;2023-07-31T14:04:17;16.80;99.90
35668;DHT22;22158;59.280;17.806;2023-07-31T14:06:43;16.80;99.90
35668;DHT22;22158;59.280;17.806;2023-07-31T14:09:09;16.80;99.90
35668;DHT22;22158;59.280;17.806;2023-07-31T14:11:35;16.90;99.90
35668;DHT22;22158;59.280;17.806;2023-07-31T14:14:00;16.90;99.90
35668;DHT22;22158;59.280;17.806;2023-07-31T14:16:29;16.90;99.90
35668;DHT22;22158;59.280;17.806;2023-07-31T14:18:55;16.90;99.90
35668;DHT22;22158;59.280;17.806;2023-07-31T14:21:21;16.90;99.90
35668;DHT22;22158;59.280;17.806;2023-07-31T14:23:46;16.90;99.90
35668;DHT22;22158;59.280;17.806;2023-07-31T14:26:12;17.00;99.90
35668;DHT22;22158;59.280;17.806;2023-07-31T14:28:38;17.00;99.90
35668;DHT22;22158;59.280;17.806;2023-07-31T14:31:03;17.00;99.90
35668;DHT22;22158;59.280;17.806;2023-07-31T14:33:29;17.10;99.90
35668;DHT22;22158;59.280;17.806;2023-07-31T14:35:55;17.20;99.90
35668;DHT22;22158;59.280;17.806;2023-07-31T14:38:20;17.20;99.90
35668;DHT22;22158;59.280;17.806;2023-07-31T14:40:46;17.30;99.90
35668;DHT22;22158;59.280;17.806;2023-07-31T14:43:11;17.30;99.90
35668;DHT22;22158;59.280;17.806;2023-07-31T14:45:37;17.40;99.90
35668;DHT22;22158;59.280;17.806;2023-07-31T14:48:03;17.40;99.90
35668;DHT22;22158;59.280;17.806;2023-07-31T14:50:28;17.50;99.90
35668;DHT22;22158;59.280;17.806;2023-07-31T14:52:54;17.40;99.90
35668;DHT22;22158;59.280;17.806;2023-07-31T14:55:20;17.50;99.90
35668;DHT22;22158;59.280;17.806;2023-07-31T14:57:45;17.50;99.90
35668;DHT22;22158;59.280;17.806;2023-07-31T15:00:11;17.50;99.90
35668;DHT22;22158;59.280;17.806;2023-07-31T15:02:37;17.60;99.90
35668;DHT22;22158;59.280;17.806;2023-07-31T15:05:04;17.50;99.90
35668;DHT22;22158;59.280;17.806;2023-07-31T15:07:30;17.50;99.90
35668;DHT22;22158;59.280;17.806;2023-07-31T15:09:55;17.50;99.90
35668;DHT22;22158;59.280;17.806;2023-07-31T15:12:21;17.50;99.90
35668;DHT22;22158;59.280;17.806;2023-07-31T15:14:48;17.50;99.90
35668;DHT22;22158;59.280;17.806;2023-07-31T15:17:14;17.50;99.90
35668;DHT22;22158;59.280;17.806;2023-07-31T15:19:39;17.50;99.90
35668;DHT22;22158;59.280;17.806;2023-07-31T15:22:05;17.50;99.90
35668;DHT22;22158;59.280;17.806;2023-07-31T15:24:31;17.40;99.90
35668;DHT22;22158;59.280;17.806;2023-07-31T15:26:56;17.40;99.90